createdAt,value
2017-12-01T00:01:07.128Z,19.69
2017-12-01T00:02:15.771Z,19.68
2017-12-01T00:03:24.969Z,19.73
2017-12-01T00:04:34.445Z,19.61
2017-12-01T00:05:43.849Z,19.59
2017-12-01T00:06:52.847Z,19.55
2017-12-01T00:08:02.301Z,19.59
2017-12-01T00:09:11.202Z,19.59
2017-12-01T00:10:20.403Z,19.59
2017-12-01T00:11:29.614Z,19.61
2017-12-01T00:12:38.818Z,19.62
2017-12-01T00:13:47.483Z,19.61
2017-12-01T00:14:56.126Z,19.68
2017-12-01T00:16:05.312Z,19.68
2017-12-01T00:17:14.235Z,19.56
2017-12-01T00:18:23.166Z,19.58
2017-12-01T00:19:31.807Z,19.59
2017-12-01T00:20:40.477Z,19.56
2017-12-01T00:21:49.718Z,19.63
2017-12-01T00:22:58.626Z,19.56
2017-12-01T00:24:07.797Z,19.59
2017-12-01T00:25:17.483Z,19.56
2017-12-01T00:26:26.654Z,19.61
2017-12-01T00:27:35.595Z,19.56
2017-12-01T00:28:44.563Z,19.58
2017-12-01T00:29:53.993Z,19.59
2017-12-01T00:31:03.171Z,19.56
2017-12-01T00:32:12.318Z,19.62
2017-12-01T00:33:21.487Z,19.56
2017-12-01T00:34:30.417Z,19.63
2017-12-01T00:35:39.059Z,19.55
2017-12-01T00:36:47.720Z,19.54
2017-12-01T00:37:56.668Z,19.62
2017-12-01T00:39:05.865Z,19.61
2017-12-01T00:40:14.538Z,19.61
2017-12-01T00:41:23.711Z,19.62
2017-12-01T00:42:32.900Z,19.61
2017-12-01T00:43:41.901Z,19.59
2017-12-01T00:44:51.323Z,19.59
2017-12-01T00:46:00.270Z,19.63
2017-12-01T00:47:09.436Z,19.58
2017-12-01T00:48:18.628Z,19.58
2017-12-01T00:49:27.790Z,19.62
2017-12-01T00:50:36.694Z,19.63
2017-12-01T00:51:45.607Z,19.59
2017-12-01T00:52:54.261Z,19.59
2017-12-01T00:54:03.230Z,19.59
2017-12-01T00:55:12.660Z,19.62
2017-12-01T00:56:21.306Z,19.63
2017-12-01T00:57:30.490Z,19.59
2017-12-01T00:58:39.667Z,19.59
2017-12-01T00:59:48.588Z,19.58
2017-12-01T01:00:57.533Z,19.58
2017-12-01T01:02:06.710Z,19.59
2017-12-01T01:03:16.128Z,19.62
2017-12-01T01:04:25.068Z,19.55
2017-12-01T01:05:33.985Z,19.56
2017-12-01T01:06:43.138Z,19.56
2017-12-01T01:07:52.079Z,19.58
2017-12-01T01:09:01.238Z,19.56
2017-12-01T01:10:10.442Z,19.62
2017-12-01T01:11:19.387Z,19.59
2017-12-01T01:12:28.554Z,19.59
2017-12-01T01:13:37.479Z,19.59
2017-12-01T01:14:46.922Z,19.56
2017-12-01T01:15:56.089Z,19.58
2017-12-01T01:17:05.500Z,19.61
2017-12-01T01:18:14.672Z,19.56
2017-12-01T01:19:23.837Z,19.58
2017-12-01T01:20:33.274Z,19.62
2017-12-01T01:21:42.468Z,19.58
2017-12-01T01:22:51.133Z,19.56
2017-12-01T01:24:00.076Z,19.59
2017-12-01T01:25:09.510Z,19.55
2017-12-01T01:26:18.711Z,19.59
2017-12-01T01:27:27.610Z,19.58
2017-12-01T01:28:36.767Z,19.59
2017-12-01T01:29:45.668Z,19.62
2017-12-01T01:30:54.346Z,19.58
2017-12-01T01:32:03.521Z,19.55
2017-12-01T01:33:12.439Z,19.62
2017-12-01T01:34:22.432Z,19.62
2017-12-01T01:35:31.608Z,19.58
2017-12-01T01:36:41.046Z,19.56
2017-12-01T01:37:50.200Z,19.55
2017-12-01T01:38:59.115Z,19.56
2017-12-01T01:40:08.555Z,19.56
2017-12-01T01:41:17.729Z,19.56
2017-12-01T01:42:26.730Z,19.56
2017-12-01T01:43:36.181Z,19.56
2017-12-01T01:44:45.613Z,19.55
2017-12-01T01:45:54.789Z,19.56
2017-12-01T01:47:04.215Z,19.55
2017-12-01T01:48:13.654Z,19.51
2017-12-01T01:49:22.859Z,19.54
2017-12-01T01:50:32.321Z,19.56
2017-12-01T01:51:40.966Z,19.55
2017-12-01T01:52:50.185Z,19.54
2017-12-01T01:53:59.094Z,19.56
2017-12-01T01:55:08.259Z,19.56
2017-12-01T01:56:17.428Z,19.51
2017-12-01T01:57:26.937Z,19.56
2017-12-01T01:58:36.118Z,19.55
2017-12-01T01:59:44.766Z,19.56
2017-12-01T02:00:53.506Z,19.51
2017-12-01T02:02:02.682Z,19.51
2017-12-01T02:03:11.595Z,19.58
2017-12-01T02:04:21.017Z,19.51
2017-12-01T02:05:30.440Z,19.55
2017-12-01T02:06:39.341Z,19.48
2017-12-01T02:07:48.761Z,19.51
2017-12-01T02:08:58.477Z,19.51
2017-12-01T02:10:08.174Z,19.51
2017-12-01T02:11:17.130Z,19.48
2017-12-01T02:12:25.732Z,19.48
2017-12-01T02:13:34.648Z,19.5
2017-12-01T02:14:44.068Z,19.55
2017-12-01T02:15:53.231Z,19.48
2017-12-01T02:17:02.172Z,19.51
2017-12-01T02:18:11.092Z,19.55
2017-12-01T02:19:20.252Z,19.47
2017-12-01T02:20:29.165Z,19.55
2017-12-01T02:21:38.318Z,19.51
2017-12-01T02:22:47.034Z,19.51
2017-12-01T02:23:55.932Z,19.51
2017-12-01T02:25:04.847Z,19.43
2017-12-01T02:26:14.264Z,19.46
2017-12-01T02:27:22.911Z,19.46
2017-12-01T02:28:31.838Z,19.41
2017-12-01T02:29:40.540Z,19.41
2017-12-01T02:30:49.711Z,19.41
2017-12-01T02:31:59.396Z,19.46
2017-12-01T02:33:08.602Z,19.43
2017-12-01T02:34:18.075Z,19.46
2017-12-01T02:35:26.986Z,19.46
2017-12-01T02:36:35.899Z,19.44
2017-12-01T02:37:45.342Z,19.54
2017-12-01T02:38:54.515Z,19.46
2017-12-01T02:40:03.941Z,19.51
2017-12-01T02:41:13.142Z,19.5
2017-12-01T02:42:23.129Z,19.43
2017-12-01T02:43:32.049Z,19.51
2017-12-01T02:44:41.760Z,19.37
2017-12-01T02:45:50.666Z,19.47
2017-12-01T02:46:59.572Z,19.48
2017-12-01T02:48:09.013Z,19.5
2017-12-01T02:49:18.177Z,19.4
2017-12-01T02:50:27.336Z,19.47
2017-12-01T02:51:35.990Z,19.43
2017-12-01T02:52:45.456Z,19.44
2017-12-01T02:53:54.637Z,19.5
2017-12-01T02:55:03.592Z,19.44
2017-12-01T02:56:12.545Z,19.46
2017-12-01T02:57:21.974Z,19.44
2017-12-01T02:58:30.871Z,19.48
2017-12-01T02:59:39.555Z,19.39
2017-12-01T03:00:48.226Z,19.44
2017-12-01T03:01:57.393Z,19.5
2017-12-01T03:03:06.843Z,19.43
2017-12-01T03:04:16.273Z,19.44
2017-12-01T03:05:25.465Z,19.48
2017-12-01T03:06:34.897Z,19.54
2017-12-01T03:07:44.345Z,19.51
2017-12-01T03:08:53.518Z,19.41
2017-12-01T03:10:02.954Z,19.47
2017-12-01T03:11:12.393Z,19.5
2017-12-01T03:12:21.565Z,19.51
2017-12-01T03:13:30.239Z,19.37
2017-12-01T03:14:39.423Z,19.46
2017-12-01T03:15:48.394Z,19.47
2017-12-01T03:16:57.810Z,19.51
2017-12-01T03:18:06.963Z,19.51
2017-12-01T03:19:16.161Z,19.47
2017-12-01T03:20:24.835Z,19.43
2017-12-01T03:21:34.263Z,19.51
2017-12-01T03:22:43.169Z,19.41
2017-12-01T03:23:52.090Z,19.44
2017-12-01T03:25:02.036Z,19.46
2017-12-01T03:26:11.753Z,19.44
2017-12-01T03:27:20.655Z,19.46
2017-12-01T03:28:29.572Z,19.4
2017-12-01T03:29:38.989Z,19.46
2017-12-01T03:30:47.634Z,19.37
2017-12-01T03:31:56.807Z,19.5
2017-12-01T03:33:06.005Z,19.43
2017-12-01T03:34:15.156Z,19.46
2017-12-01T03:35:24.877Z,19.46
2017-12-01T03:36:34.342Z,19.39
2017-12-01T03:37:43.525Z,19.44
2017-12-01T03:38:52.187Z,19.44
2017-12-01T03:40:01.091Z,19.37
2017-12-01T03:41:10.245Z,19.46
2017-12-01T03:42:19.420Z,19.39
2017-12-01T03:43:28.081Z,19.47
2017-12-01T03:44:37.252Z,19.4
2017-12-01T03:45:45.900Z,19.47
2017-12-01T03:46:54.867Z,19.39
2017-12-01T03:48:03.782Z,19.46
2017-12-01T03:49:12.960Z,19.44
2017-12-01T03:50:21.933Z,19.39
2017-12-01T03:51:31.362Z,19.39
2017-12-01T03:52:40.021Z,19.39
2017-12-01T03:53:49.173Z,19.48
2017-12-01T03:54:58.333Z,19.39
2017-12-01T03:56:07.266Z,19.46
2017-12-01T03:57:16.939Z,19.39
2017-12-01T03:58:26.165Z,19.48
2017-12-01T03:59:34.842Z,19.36
2017-12-01T04:00:44.300Z,19.46
2017-12-01T04:01:53.199Z,19.39
2017-12-01T04:03:02.657Z,19.46
2017-12-01T04:04:12.084Z,19.47
2017-12-01T04:05:20.759Z,19.48
2017-12-01T04:06:29.956Z,19.46
2017-12-01T04:07:39.142Z,19.36
2017-12-01T04:08:48.047Z,19.36
2017-12-01T04:09:56.694Z,19.39
2017-12-01T04:11:05.343Z,19.33
2017-12-01T04:12:14.237Z,19.39
2017-12-01T04:13:22.900Z,19.36
2017-12-01T04:14:31.556Z,19.46
2017-12-01T04:15:40.729Z,19.39
2017-12-01T04:16:49.887Z,19.46
2017-12-01T04:17:59.051Z,19.36
2017-12-01T04:19:07.946Z,19.39
2017-12-01T04:20:17.152Z,19.5
2017-12-01T04:21:26.079Z,19.4
2017-12-01T04:22:35.512Z,19.5
2017-12-01T04:23:44.429Z,19.41
2017-12-01T04:24:53.598Z,19.44
2017-12-01T04:26:02.785Z,19.41
2017-12-01T04:27:11.693Z,19.39
2017-12-01T04:28:21.133Z,19.43
2017-12-01T04:29:30.093Z,19.47
2017-12-01T04:30:38.733Z,19.5
2017-12-01T04:31:47.664Z,19.44
2017-12-01T04:32:57.182Z,19.46
2017-12-01T04:34:07.152Z,19.41
2017-12-01T04:35:15.856Z,19.31
2017-12-01T04:36:24.764Z,19.37
2017-12-01T04:37:33.690Z,19.32
2017-12-01T04:38:42.576Z,19.39
2017-12-01T04:39:51.775Z,19.39
2017-12-01T04:41:00.689Z,19.39
2017-12-01T04:42:09.873Z,19.4
2017-12-01T04:43:19.292Z,19.39
2017-12-01T04:44:28.195Z,19.37
2017-12-01T04:45:37.146Z,19.39
2017-12-01T04:46:45.794Z,19.33
2017-12-01T04:47:54.980Z,19.36
2017-12-01T04:49:03.901Z,19.39
2017-12-01T04:50:12.814Z,19.37
2017-12-01T04:51:21.733Z,19.36
2017-12-01T04:52:30.662Z,19.37
2017-12-01T04:53:39.829Z,19.32
2017-12-01T04:54:49.306Z,19.32
2017-12-01T04:55:58.446Z,19.4
2017-12-01T04:57:07.624Z,19.33
2017-12-01T04:58:16.551Z,19.37
2017-12-01T04:59:25.450Z,19.36
2017-12-01T05:00:34.369Z,19.36
2017-12-01T05:01:43.814Z,19.39
2017-12-01T05:02:53.486Z,19.33
2017-12-01T05:04:02.395Z,19.41
2017-12-01T05:05:11.816Z,19.4
2017-12-01T05:06:20.975Z,19.33
2017-12-01T05:07:30.134Z,19.36
2017-12-01T05:08:39.305Z,19.36
2017-12-01T05:09:48.451Z,19.32
2017-12-01T05:10:57.352Z,19.33
2017-12-01T05:12:06.280Z,19.4
2017-12-01T05:13:15.206Z,19.43
2017-12-01T05:14:23.869Z,19.36
2017-12-01T05:15:32.801Z,19.39
2017-12-01T05:16:41.703Z,19.31
2017-12-01T05:17:50.600Z,19.36
2017-12-01T05:18:59.769Z,19.32
2017-12-01T05:20:08.669Z,19.33
2017-12-01T05:21:17.581Z,19.32
2017-12-01T05:22:26.490Z,19.36
2017-12-01T05:23:35.651Z,19.39
2017-12-01T05:24:44.579Z,19.31
2017-12-01T05:25:53.208Z,19.32
2017-12-01T05:27:02.627Z,19.33
2017-12-01T05:28:12.082Z,19.37
2017-12-01T05:29:21.553Z,19.32
2017-12-01T05:30:30.473Z,19.37
2017-12-01T05:31:39.635Z,19.37
2017-12-01T05:32:48.789Z,19.4
2017-12-01T05:33:57.711Z,19.37
2017-12-01T05:35:06.618Z,19.41
2017-12-01T05:36:15.514Z,19.39
2017-12-01T05:37:24.939Z,19.32
2017-12-01T05:38:33.601Z,19.46
2017-12-01T05:39:42.510Z,19.51
2017-12-01T05:40:51.673Z,19.48
2017-12-01T05:42:00.833Z,19.56
2017-12-01T05:43:10.017Z,19.62
2017-12-01T05:44:18.941Z,19.68
2017-12-01T05:45:28.112Z,19.76
2017-12-01T05:46:37.031Z,19.74
2017-12-01T05:47:46.004Z,19.86
2017-12-01T05:48:54.919Z,19.91
2017-12-01T05:50:03.586Z,19.92
2017-12-01T05:51:13.020Z,19.98
2017-12-01T05:52:22.212Z,20.14
2017-12-01T05:53:30.869Z,20.06
2017-12-01T05:54:39.783Z,20.21
2017-12-01T05:55:48.941Z,20.26
2017-12-01T05:56:58.164Z,20.26
2017-12-01T05:58:07.044Z,20.26
2017-12-01T05:59:15.960Z,20.36
2017-12-01T06:00:24.625Z,20.42
2017-12-01T06:01:33.536Z,20.42
2017-12-01T06:02:42.482Z,20.52
2017-12-01T06:03:52.214Z,20.54
2017-12-01T06:05:01.170Z,20.62
2017-12-01T06:06:10.591Z,20.66
2017-12-01T06:07:20.034Z,20.7
2017-12-01T06:08:29.536Z,20.69
2017-12-01T06:09:38.526Z,20.72
2017-12-01T06:10:47.960Z,20.79
2017-12-01T06:11:57.178Z,20.77
2017-12-01T06:13:06.078Z,20.87
2017-12-01T06:14:14.981Z,20.82
2017-12-01T06:15:24.434Z,20.94
2017-12-01T06:16:33.620Z,20.97
2017-12-01T06:17:42.552Z,21.06
2017-12-01T06:18:51.192Z,21.01
2017-12-01T06:20:00.359Z,21.16
2017-12-01T06:21:09.555Z,21.14
2017-12-01T06:22:18.997Z,21.22
2017-12-01T06:23:27.902Z,21.24
2017-12-01T06:24:36.878Z,21.28
2017-12-01T06:25:45.883Z,21.32
2017-12-01T06:26:54.631Z,21.38
2017-12-01T06:28:03.559Z,21.4
2017-12-01T06:29:12.225Z,21.46
2017-12-01T06:30:21.924Z,21.38
2017-12-01T06:31:31.618Z,21.53
2017-12-01T06:32:41.050Z,21.53
2017-12-01T06:33:49.971Z,21.69
2017-12-01T06:34:59.155Z,21.67
2017-12-01T06:36:08.898Z,21.68
2017-12-01T06:37:18.589Z,21.79
2017-12-01T06:38:27.752Z,21.8
2017-12-01T06:39:36.963Z,21.72
2017-12-01T06:40:46.379Z,21.88
2017-12-01T06:41:55.552Z,21.9
2017-12-01T06:43:04.482Z,21.91
2017-12-01T06:44:13.409Z,21.92
2017-12-01T06:45:22.326Z,21.98
2017-12-01T06:46:31.770Z,22.02
2017-12-01T06:47:41.461Z,21.98
2017-12-01T06:48:50.400Z,21.99
2017-12-01T06:49:59.357Z,22.05
2017-12-01T06:51:08.526Z,22
2017-12-01T06:52:17.189Z,22.17
2017-12-01T06:53:26.352Z,22.14
2017-12-01T06:54:35.574Z,22.12
2017-12-01T06:55:44.920Z,22.14
2017-12-01T06:56:54.094Z,22.22
2017-12-01T06:58:03.520Z,22.25
2017-12-01T06:59:12.952Z,22.2
2017-12-01T07:00:22.169Z,22.2
2017-12-01T07:01:31.642Z,22.1
2017-12-01T07:02:40.568Z,22.2
2017-12-01T07:03:49.771Z,22.1
2017-12-01T07:04:58.503Z,22.02
2017-12-01T07:06:07.935Z,22.05
2017-12-01T07:07:17.356Z,22.06
2017-12-01T07:08:26.521Z,21.99
2017-12-01T07:09:35.692Z,22
2017-12-01T07:10:45.453Z,21.98
2017-12-01T07:11:54.660Z,21.98
2017-12-01T07:13:03.815Z,21.94
2017-12-01T07:14:12.721Z,21.94
2017-12-01T07:15:21.970Z,21.91
2017-12-01T07:16:31.157Z,21.84
2017-12-01T07:17:40.357Z,21.86
2017-12-01T07:18:49.307Z,21.91
2017-12-01T07:19:57.943Z,21.75
2017-12-01T07:21:07.661Z,21.82
2017-12-01T07:22:17.135Z,21.77
2017-12-01T07:23:26.843Z,21.77
2017-12-01T07:24:36.780Z,21.67
2017-12-01T07:25:46.191Z,21.61
2017-12-01T07:26:55.091Z,21.58
2017-12-01T07:28:03.757Z,21.59
2017-12-01T07:29:12.670Z,21.54
2017-12-01T07:30:21.583Z,21.49
2017-12-01T07:31:30.841Z,21.46
2017-12-01T07:32:40.016Z,21.42
2017-12-01T07:33:49.255Z,21.37
2017-12-01T07:34:58.973Z,21.37
2017-12-01T07:36:08.667Z,21.34
2017-12-01T07:37:17.574Z,21.27
2017-12-01T07:38:26.495Z,21.29
2017-12-01T07:39:35.662Z,21.22
2017-12-01T07:40:44.317Z,21.12
2017-12-01T07:41:53.246Z,21.13
2017-12-01T07:43:01.948Z,21.12
2017-12-01T07:44:11.130Z,21.13
2017-12-01T07:45:20.038Z,21.04
2017-12-01T07:46:28.966Z,21.03
2017-12-01T07:47:37.874Z,21.03
2017-12-01T07:48:47.605Z,20.92
2017-12-01T07:49:57.065Z,20.98
2017-12-01T07:51:06.236Z,20.94
2017-12-01T07:52:15.410Z,20.89
2017-12-01T07:53:24.085Z,20.8
2017-12-01T07:54:33.521Z,20.87
2017-12-01T07:55:42.439Z,20.92
2017-12-01T07:56:51.862Z,20.76
2017-12-01T07:58:00.767Z,20.84
2017-12-01T07:59:09.942Z,20.69
2017-12-01T08:00:19.668Z,20.74
2017-12-01T08:01:29.024Z,20.7
2017-12-01T08:02:38.209Z,20.67
2017-12-01T08:03:48.146Z,20.67
2017-12-01T08:04:57.597Z,20.7
2017-12-01T08:06:07.075Z,20.67
2017-12-01T08:07:16.243Z,20.72
2017-12-01T08:08:25.158Z,20.73
2017-12-01T08:09:34.328Z,20.66
2017-12-01T08:10:42.991Z,20.58
2017-12-01T08:11:51.681Z,20.67
2017-12-01T08:13:00.636Z,20.59
2017-12-01T08:14:09.826Z,20.62
2017-12-01T08:15:18.740Z,20.59
2017-12-01T08:16:28.195Z,20.54
2017-12-01T08:17:37.897Z,20.54
2017-12-01T08:18:46.567Z,20.57
2017-12-01T08:19:55.790Z,20.57
2017-12-01T08:21:05.040Z,20.52
2017-12-01T08:22:14.261Z,20.5
2017-12-01T08:23:23.459Z,20.52
2017-12-01T08:24:32.147Z,20.52
2017-12-01T08:25:40.811Z,20.52
2017-12-01T08:26:50.004Z,20.42
2017-12-01T08:27:59.221Z,20.43
2017-12-01T08:29:08.396Z,20.42
2017-12-01T08:30:17.331Z,20.48
2017-12-01T08:31:26.767Z,20.48
2017-12-01T08:32:35.693Z,20.48
2017-12-01T08:33:44.913Z,20.41
2017-12-01T08:34:53.560Z,20.38
2017-12-01T08:36:02.735Z,20.42
2017-12-01T08:37:12.230Z,20.42
2017-12-01T08:38:21.420Z,20.35
2017-12-01T08:39:30.643Z,20.38
2017-12-01T08:40:39.559Z,20.36
2017-12-01T08:41:48.756Z,20.36
2017-12-01T08:42:57.457Z,20.35
2017-12-01T08:44:06.136Z,20.41
2017-12-01T08:45:15.320Z,20.36
2017-12-01T08:46:24.243Z,20.38
2017-12-01T08:47:33.203Z,20.36
2017-12-01T08:48:42.884Z,20.31
2017-12-01T08:49:52.070Z,20.39
2017-12-01T08:51:00.981Z,20.36
2017-12-01T08:52:09.908Z,20.38
2017-12-01T08:53:19.111Z,20.39
2017-12-01T08:54:28.574Z,20.35
2017-12-01T08:55:37.741Z,20.32
2017-12-01T08:56:46.931Z,20.38
2017-12-01T08:57:56.103Z,20.35
2017-12-01T08:59:05.302Z,20.38
2017-12-01T09:00:14.769Z,20.39
2017-12-01T09:01:23.941Z,20.36
2017-12-01T09:02:33.406Z,20.33
2017-12-01T09:03:42.384Z,20.36
2017-12-01T09:04:51.545Z,20.28
2017-12-01T09:06:00.473Z,20.31
2017-12-01T09:07:09.715Z,20.28
2017-12-01T09:08:19.165Z,20.28
2017-12-01T09:09:28.362Z,20.33
2017-12-01T09:10:37.798Z,20.32
2017-12-01T09:11:46.732Z,20.32
2017-12-01T09:12:56.146Z,20.32
2017-12-01T09:14:05.331Z,20.28
2017-12-01T09:15:14.770Z,20.28
2017-12-01T09:16:23.457Z,20.31
2017-12-01T09:17:32.142Z,20.29
2017-12-01T09:18:41.336Z,20.32
2017-12-01T09:19:50.751Z,20.29
2017-12-01T09:20:59.946Z,20.29
2017-12-01T09:22:09.411Z,20.29
2017-12-01T09:23:19.110Z,20.26
2017-12-01T09:24:27.762Z,20.28
2017-12-01T09:25:37.475Z,20.29
2017-12-01T09:26:46.390Z,20.35
2017-12-01T09:27:55.313Z,20.29
2017-12-01T09:29:04.488Z,20.29
2017-12-01T09:30:13.144Z,20.29
2017-12-01T09:31:22.342Z,20.28
2017-12-01T09:32:31.012Z,20.28
2017-12-01T09:33:39.916Z,20.39
2017-12-01T09:34:48.815Z,20.39
2017-12-01T09:35:58.230Z,20.38
2017-12-01T09:37:07.385Z,20.36
2017-12-01T09:38:16.592Z,20.33
2017-12-01T09:39:25.517Z,20.38
2017-12-01T09:40:34.685Z,20.39
2017-12-01T09:41:43.874Z,20.38
2017-12-01T09:42:52.787Z,20.32
2017-12-01T09:44:02.484Z,20.43
2017-12-01T09:45:11.134Z,20.36
2017-12-01T09:46:20.064Z,20.39
2017-12-01T09:47:29.261Z,20.36
2017-12-01T09:48:38.693Z,20.36
2017-12-01T09:49:48.373Z,20.31
2017-12-01T09:50:57.288Z,20.36
2017-12-01T09:52:06.461Z,20.33
2017-12-01T09:53:15.108Z,20.28
2017-12-01T09:54:24.543Z,20.32
2017-12-01T09:55:34.049Z,20.31
2017-12-01T09:56:43.406Z,20.29
2017-12-01T09:57:52.311Z,20.32
2017-12-01T09:59:01.498Z,20.33
2017-12-01T10:00:10.662Z,20.36
2017-12-01T10:01:19.602Z,20.32
2017-12-01T10:02:28.545Z,20.29
2017-12-01T10:03:37.739Z,20.26
2017-12-01T10:04:47.453Z,20.26
2017-12-01T10:05:56.377Z,20.36
2017-12-01T10:07:05.558Z,20.31
2017-12-01T10:08:14.767Z,20.28
2017-12-01T10:09:23.953Z,20.29
2017-12-01T10:10:33.153Z,20.31
2017-12-01T10:11:41.842Z,20.31
2017-12-01T10:12:50.528Z,20.32
2017-12-01T10:13:59.462Z,20.33
2017-12-01T10:15:08.649Z,20.33
2017-12-01T10:16:17.592Z,20.32
2017-12-01T10:17:26.520Z,20.35
2017-12-01T10:18:35.693Z,20.32
2017-12-01T10:19:45.167Z,20.32
2017-12-01T10:20:54.083Z,20.29
2017-12-01T10:22:03.242Z,20.31
2017-12-01T10:23:11.911Z,20.29
2017-12-01T10:24:21.354Z,20.29
2017-12-01T10:25:30.271Z,20.31
2017-12-01T10:26:39.432Z,20.28
2017-12-01T10:27:48.335Z,20.17
2017-12-01T10:28:57.028Z,20.29
2017-12-01T10:30:06.473Z,20.29
2017-12-01T10:31:15.893Z,20.31
2017-12-01T10:32:24.584Z,20.28
2017-12-01T10:33:33.462Z,20.28
2017-12-01T10:34:43.172Z,20.31
2017-12-01T10:35:52.326Z,20.31
2017-12-01T10:37:01.783Z,20.36
2017-12-01T10:38:10.705Z,20.32
2017-12-01T10:39:19.651Z,20.33
2017-12-01T10:40:28.558Z,20.36
2017-12-01T10:41:37.192Z,20.36
2017-12-01T10:42:46.880Z,20.32
2017-12-01T10:43:56.331Z,20.36
2017-12-01T10:45:05.236Z,20.32
2017-12-01T10:46:14.133Z,20.31
2017-12-01T10:47:23.599Z,20.36
2017-12-01T10:48:33.032Z,20.33
2017-12-01T10:49:41.672Z,20.32
2017-12-01T10:50:50.326Z,20.39
2017-12-01T10:51:59.752Z,20.32
2017-12-01T10:53:09.229Z,20.29
2017-12-01T10:54:18.643Z,20.29
2017-12-01T10:55:27.806Z,20.32
2017-12-01T10:56:37.256Z,20.31
2017-12-01T10:57:46.439Z,20.33
2017-12-01T10:58:55.629Z,20.36
2017-12-01T11:00:05.386Z,20.26
2017-12-01T11:01:14.300Z,20.32
2017-12-01T11:02:22.961Z,20.29
2017-12-01T11:03:32.668Z,20.31
2017-12-01T11:04:41.335Z,20.29
2017-12-01T11:05:50.782Z,20.2
2017-12-01T11:06:59.692Z,20.28
2017-12-01T11:08:08.871Z,20.16
2017-12-01T11:09:17.548Z,20.18
2017-12-01T11:10:26.507Z,20.29
2017-12-01T11:11:35.680Z,20.2
2017-12-01T11:12:45.365Z,20.2
2017-12-01T11:13:54.549Z,20.14
2017-12-01T11:15:03.738Z,20.18
2017-12-01T11:16:12.934Z,20.11
2017-12-01T11:17:21.850Z,20.17
2017-12-01T11:18:31.042Z,20.13
2017-12-01T11:19:39.961Z,20.14
2017-12-01T11:20:49.722Z,20.11
2017-12-01T11:21:58.909Z,20.05
2017-12-01T11:23:07.835Z,20.13
2017-12-01T11:24:16.788Z,20.14
2017-12-01T11:25:25.691Z,20.11
2017-12-01T11:26:34.889Z,20.11
2017-12-01T11:27:43.820Z,20.11
2017-12-01T11:28:52.481Z,20.14
2017-12-01T11:30:01.169Z,20.1
2017-12-01T11:31:10.628Z,20.08
2017-12-01T11:32:19.830Z,20.05
2017-12-01T11:33:29.296Z,20.08
2017-12-01T11:34:38.203Z,20.06
2017-12-01T11:35:47.403Z,20.06
2017-12-01T11:36:56.327Z,20.06
2017-12-01T11:38:05.500Z,20.03
2017-12-01T11:39:14.418Z,19.99
2017-12-01T11:40:23.843Z,20.05
2017-12-01T11:41:33.028Z,20.08
2017-12-01T11:42:41.941Z,19.98
2017-12-01T11:43:51.469Z,20.11
2017-12-01T11:45:00.621Z,20.05
2017-12-01T11:46:09.535Z,20.01
2017-12-01T11:47:18.963Z,20.02
2017-12-01T11:48:28.428Z,20.01
2017-12-01T11:49:37.103Z,19.99
2017-12-01T11:50:46.019Z,20.08
2017-12-01T11:51:55.198Z,20.01
2017-12-01T11:53:04.379Z,19.99
2017-12-01T11:54:13.801Z,19.98
2017-12-01T11:55:22.968Z,19.98
2017-12-01T11:56:31.611Z,20.05
2017-12-01T11:57:40.540Z,20.08
2017-12-01T11:58:49.708Z,19.99
2017-12-01T11:59:59.154Z,20.06
2017-12-01T12:01:08.573Z,20.01
2017-12-01T12:02:17.484Z,20.02
2017-12-01T12:03:26.663Z,20.01
2017-12-01T12:04:35.304Z,20.06
2017-12-01T12:05:43.967Z,20.03
2017-12-01T12:06:52.874Z,20.06
2017-12-01T12:08:01.790Z,19.99
2017-12-01T12:09:10.715Z,20.08
2017-12-01T12:10:19.898Z,20.11
2017-12-01T12:11:29.327Z,20.03
2017-12-01T12:12:37.966Z,20.03
2017-12-01T12:13:46.613Z,20.11
2017-12-01T12:14:55.508Z,20.1
2017-12-01T12:16:04.692Z,20.13
2017-12-01T12:17:13.340Z,20.03
2017-12-01T12:18:22.257Z,20.08
2017-12-01T12:19:31.422Z,20.1
2017-12-01T12:20:40.601Z,20.06
2017-12-01T12:21:49.761Z,20.08
2017-12-01T12:22:58.664Z,20.1
2017-12-01T12:24:07.324Z,20.16
2017-12-01T12:25:16.483Z,20.13
2017-12-01T12:26:25.906Z,20.06
2017-12-01T12:27:34.830Z,20.08
2017-12-01T12:28:44.010Z,20.1
2017-12-01T12:29:52.928Z,20.1
2017-12-01T12:31:02.108Z,20.08
2017-12-01T12:32:11.279Z,20.11
2017-12-01T12:33:20.444Z,20.14
2017-12-01T12:34:29.371Z,20.13
2017-12-01T12:35:38.563Z,20.1
2017-12-01T12:36:47.470Z,20.11
2017-12-01T12:37:56.103Z,20.11
2017-12-01T12:39:05.289Z,20.16
2017-12-01T12:40:14.475Z,20.08
2017-12-01T12:41:23.642Z,20.08
2017-12-01T12:42:32.315Z,20.1
2017-12-01T12:43:41.485Z,20.13
2017-12-01T12:44:50.398Z,20.08
2017-12-01T12:45:59.310Z,20.06
2017-12-01T12:47:08.482Z,20.02
2017-12-01T12:48:17.665Z,20.01
2017-12-01T12:49:27.076Z,20.03
2017-12-01T12:50:35.733Z,20.11
2017-12-01T12:51:44.933Z,20.02
2017-12-01T12:52:54.124Z,19.98
2017-12-01T12:54:02.807Z,20.06
2017-12-01T12:55:11.731Z,20.02
2017-12-01T12:56:20.637Z,19.96
2017-12-01T12:57:30.075Z,19.99
2017-12-01T12:58:39.505Z,20.01
2017-12-01T12:59:48.913Z,20.08
2017-12-01T13:00:58.596Z,20.08
2017-12-01T13:02:07.567Z,20.02
2017-12-01T13:03:16.985Z,20.06
2017-12-01T13:04:26.425Z,20.03
2017-12-01T13:05:35.637Z,20.03
2017-12-01T13:06:44.802Z,19.99
2017-12-01T13:07:53.721Z,20.05
2017-12-01T13:09:02.620Z,19.95
2017-12-01T13:10:11.518Z,20.02
2017-12-01T13:11:20.700Z,19.94
2017-12-01T13:12:29.877Z,19.99
2017-12-01T13:13:38.786Z,20.08
2017-12-01T13:14:47.712Z,20.03
2017-12-01T13:15:56.638Z,20.03
2017-12-01T13:17:06.081Z,19.99
2017-12-01T13:18:15.254Z,19.98
2017-12-01T13:19:24.195Z,19.95
2017-12-01T13:20:33.372Z,19.99
2017-12-01T13:21:42.548Z,19.98
2017-12-01T13:22:51.712Z,19.95
2017-12-01T13:24:00.627Z,20.05
2017-12-01T13:25:10.073Z,19.96
2017-12-01T13:26:18.741Z,19.95
2017-12-01T13:27:27.674Z,19.99
2017-12-01T13:28:36.346Z,19.96
2017-12-01T13:29:45.544Z,19.99
2017-12-01T13:30:54.474Z,19.87
2017-12-01T13:32:03.710Z,19.94
2017-12-01T13:33:12.903Z,19.99
2017-12-01T13:34:21.818Z,19.96
2017-12-01T13:35:31.244Z,19.94
2017-12-01T13:36:40.703Z,19.95
2017-12-01T13:37:49.908Z,19.95
2017-12-01T13:38:58.807Z,19.94
2017-12-01T13:40:07.994Z,19.94
2017-12-01T13:41:16.640Z,19.94
2017-12-01T13:42:25.814Z,19.92
2017-12-01T13:43:34.464Z,19.91
2017-12-01T13:44:44.156Z,19.94
2017-12-01T13:45:53.315Z,19.95
2017-12-01T13:47:02.234Z,19.86
2017-12-01T13:48:11.417Z,19.96
2017-12-01T13:49:20.591Z,19.96
2017-12-01T13:50:30.085Z,19.94
2017-12-01T13:51:39.242Z,19.87
2017-12-01T13:52:48.160Z,19.99
2017-12-01T13:53:57.078Z,19.86
2017-12-01T13:55:05.982Z,19.84
2017-12-01T13:56:14.913Z,19.86
2017-12-01T13:57:23.863Z,19.88
2017-12-01T13:58:32.770Z,19.87
2017-12-01T13:59:41.963Z,19.92
2017-12-01T14:00:51.125Z,19.88
2017-12-01T14:02:00.291Z,19.87
2017-12-01T14:03:09.988Z,19.86
2017-12-01T14:04:19.152Z,19.88
2017-12-01T14:05:28.567Z,19.8
2017-12-01T14:06:37.526Z,19.87
2017-12-01T14:07:46.497Z,19.84
2017-12-01T14:08:55.664Z,19.83
2017-12-01T14:10:04.331Z,19.84
2017-12-01T14:11:13.228Z,19.77
2017-12-01T14:12:22.396Z,19.83
2017-12-01T14:13:31.569Z,19.84
2017-12-01T14:14:40.735Z,19.84
2017-12-01T14:15:49.932Z,19.88
2017-12-01T14:16:59.621Z,19.83
2017-12-01T14:18:09.307Z,19.83
2017-12-01T14:19:18.937Z,19.77
2017-12-01T14:20:27.836Z,19.84
2017-12-01T14:21:36.745Z,19.76
2017-12-01T14:22:46.166Z,19.86
2017-12-01T14:23:55.071Z,19.8
2017-12-01T14:25:04.507Z,19.71
2017-12-01T14:26:13.680Z,19.76
2017-12-01T14:27:22.903Z,19.76
2017-12-01T14:28:32.055Z,19.71
2017-12-01T14:29:40.977Z,19.76
2017-12-01T14:30:49.651Z,19.69
2017-12-01T14:31:59.334Z,19.76
2017-12-01T14:33:09.285Z,19.71
2017-12-01T14:34:18.470Z,19.73
2017-12-01T14:35:27.629Z,19.69
2017-12-01T14:36:36.798Z,19.81
2017-12-01T14:37:45.964Z,19.63
2017-12-01T14:38:55.115Z,19.73
2017-12-01T14:40:03.772Z,19.71
2017-12-01T14:41:13.203Z,19.65
2017-12-01T14:42:22.628Z,19.61
2017-12-01T14:43:32.076Z,19.69
2017-12-01T14:44:40.996Z,19.68
2017-12-01T14:45:50.441Z,19.61
2017-12-01T14:46:59.418Z,19.73
2017-12-01T14:48:08.327Z,19.69
2017-12-01T14:49:17.249Z,19.73
2017-12-01T14:50:26.472Z,19.68
2017-12-01T14:51:35.719Z,19.71
2017-12-01T14:52:44.631Z,19.66